sensor_id;sensor_type;location;lat;lon;timestamp;temperature;humidity
77700;DHT22;66867;42.658;23.320;2023-07-13T00:00:00;23.6;66
77700;DHT22;66867;42.658;23.320;2023-07-13T00:01:00;23.6;66
77700;DHT22;66867;42.658;23.320;2023-07-13T00:02:00;23.6;67
77700;DHT22;66867;42.658;23.320;2023-07-13T00:03:00;23.6;67
77700;DHT22;66867;42.658;23.320;2023-07-13T00:04:01;23.5;67
77700;DHT22;66867;42.658;23.320;2023-07-13T00:05:00;23.6;67
77700;DHT22;66867;42.658;23.320;2023-07-13T00:06:00;23.6;67
77700;DHT22;66867;42.658;23.320;2023-07-13T00:07:00;23.6;67
77700;DHT22;66867;42.658;23.320;2023-07-13T00:08:00;23.6;66
77700;DHT22;66867;42.658;23.320;2023-07-13T00:09:00;23.6;66
77700;DHT22;66867;42.658;23.320;2023-07-13T00:10:00;23.6;67
77700;DHT22;66867;42.658;23.320;2023-07-13T00:11:01;23.6;67
77700;DHT22;66867;42.658;23.320;2023-07-13T00:12:00;23.6;68
77700;DHT22;66867;42.658;23.320;2023-07-13T00:13:00;23.5;68
77700;DHT22;66867;42.658;23.320;2023-07-13T00:14:00;23.5;68
77700;DHT22;66867;42.658;23.320;2023-07-13T00:15:01;23.5;68
77700;DHT22;66867;42.658;23.320;2023-07-13T00:16:00;23.5;67
77700;DHT22;66867;42.658;23.320;2023-07-13T00:17:00;23.5;67
77700;DHT22;66867;42.658;23.320;2023-07-13T00:18:00;23.5;67
77700;DHT22;66867;42.658;23.320;2023-07-13T00:19:00;23.5;67
77700;DHT22;66867;42.658;23.320;2023-07-13T00:20:00;23.5;67
77700;DHT22;66867;42.658;23.320;2023-07-13T00:21:00;23.5;67
77700;DHT22;66867;42.658;23.320;2023-07-13T00:22:00;23.5;67
77700;DHT22;66867;42.658;23.320;2023-07-13T00:23:00;23.4;67
77700;DHT22;66867;42.658;23.320;2023-07-13T00:24:00;23.4;67
77700;DHT22;66867;42.658;23.320;2023-07-13T00:25:00;23.4;67
77700;DHT22;66867;42.658;23.320;2023-07-13T00:26:01;23.4;67
77700;DHT22;66867;42.658;23.320;2023-07-13T00:27:00;23.4;67
77700;DHT22;66867;42.658;23.320;2023-07-13T00:28:00;23.4;67
77700;DHT22;66867;42.658;23.320;2023-07-13T00:29:00;23.3;68
77700;DHT22;66867;42.658;23.320;2023-07-13T00:30:00;23.3;68
77700;DHT22;66867;42.658;23.320;2023-07-13T00:31:00;23.3;67
77700;DHT22;66867;42.658;23.320;2023-07-13T00:32:01;23.3;67
77700;DHT22;66867;42.658;23.320;2023-07-13T00:33:00;23.3;66
77700;DHT22;66867;42.658;23.320;2023-07-13T00:34:00;23.3;66
77700;DHT22;66867;42.658;23.320;2023-07-13T00:35:00;23.3;66
77700;DHT22;66867;42.658;23.320;2023-07-13T00:36:00;23.3;67
77700;DHT22;66867;42.658;23.320;2023-07-13T00:37:00;23.2;67
77700;DHT22;66867;42.658;23.320;2023-07-13T00:38:00;23.2;67
77700;DHT22;66867;42.658;23.320;2023-07-13T00:39:00;23.2;67
77700;DHT22;66867;42.658;23.320;2023-07-13T00:40:00;23.2;67
77700;DHT22;66867;42.658;23.320;2023-07-13T00:41:00;23.2;67
77700;DHT22;66867;42.658;23.320;2023-07-13T00:42:00;23.2;68
77700;DHT22;66867;42.658;23.320;2023-07-13T00:43:00;23.2;68
77700;DHT22;66867;42.658;23.320;2023-07-13T00:44:00;23.2;68
77700;DHT22;66867;42.658;23.320;2023-07-13T00:45:01;23.1;68
77700;DHT22;66867;42.658;23.320;2023-07-13T00:47:00;23.1;68
77700;DHT22;66867;42.658;23.320;2023-07-13T00:48:00;23.1;68
77700;DHT22;66867;42.658;23.320;2023-07-13T00:49:01;23.1;68
77700;DHT22;66867;42.658;23.320;2023-07-13T00:50:00;23.1;68
77700;DHT22;66867;42.658;23.320;2023-07-13T00:51:00;23.1;68
77700;DHT22;66867;42.658;23.320;2023-07-13T00:52:08;23.1;67
77700;DHT22;66867;42.658;23.320;2023-07-13T00:53:00;23.1;67
77700;DHT22;66867;42.658;23.320;2023-07-13T00:54:01;23.1;67
77700;DHT22;66867;42.658;23.320;2023-07-13T00:55:00;23.1;67
77700;DHT22;66867;42.658;23.320;2023-07-13T00:56:00;23.1;67
77700;DHT22;66867;42.658;23.320;2023-07-13T00:57:01;23.1;68
77700;DHT22;66867;42.658;23.320;2023-07-13T00:58:00;23.1;68
77700;DHT22;66867;42.658;23.320;2023-07-13T00:59:00;23.1;67
77700;DHT22;66867;42.658;23.320;2023-07-13T01:00:01;23.1;67
77700;DHT22;66867;42.658;23.320;2023-07-13T01:01:00;23.0;66
77700;DHT22;66867;42.658;23.320;2023-07-13T01:02:00;23.1;66
77700;DHT22;66867;42.658;23.320;2023-07-13T01:03:00;23.1;67
77700;DHT22;66867;42.658;23.320;2023-07-13T01:04:00;23.1;67
77700;DHT22;66867;42.658;23.320;2023-07-13T01:05:00;23.1;67
77700;DHT22;66867;42.658;23.320;2023-07-13T01:06:00;23.1;67
77700;DHT22;66867;42.658;23.320;2023-07-13T01:07:00;23.1;68
77700;DHT22;66867;42.658;23.320;2023-07-13T01:08:00;23.1;68
77700;DHT22;66867;42.658;23.320;2023-07-13T01:09:00;23.1;67
77700;DHT22;66867;42.658;23.320;2023-07-13T01:10:00;23.1;67
77700;DHT22;66867;42.658;23.320;2023-07-13T01:11:00;23.0;67
77700;DHT22;66867;42.658;23.320;2023-07-13T01:12:00;23.0;67
77700;DHT22;66867;42.658;23.320;2023-07-13T01:13:00;23.0;67
77700;DHT22;66867;42.658;23.320;2023-07-13T01:14:00;23.0;67
77700;DHT22;66867;42.658;23.320;2023-07-13T01:15:00;23.0;67
77700;DHT22;66867;42.658;23.320;2023-07-13T01:16:01;23.0;67
77700;DHT22;66867;42.658;23.320;2023-07-13T01:17:00;23.0;67
77700;DHT22;66867;42.658;23.320;2023-07-13T01:18:00;22.9;67
77700;DHT22;66867;42.658;23.320;2023-07-13T01:19:00;22.9;67
77700;DHT22;66867;42.658;23.320;2023-07-13T01:20:00;22.9;68
77700;DHT22;66867;42.658;23.320;2023-07-13T01:21:01;22.9;68
77700;DHT22;66867;42.658;23.320;2023-07-13T01:22:00;22.8;68
77700;DHT22;66867;42.658;23.320;2023-07-13T01:23:00;22.9;68
77700;DHT22;66867;42.658;23.320;2023-07-13T01:24:00;22.9;68
77700;DHT22;66867;42.658;23.320;2023-07-13T01:25:00;22.8;68
77700;DHT22;66867;42.658;23.320;2023-07-13T01:26:00;22.8;68
77700;DHT22;66867;42.658;23.320;2023-07-13T01:27:00;22.8;68
77700;DHT22;66867;42.658;23.320;2023-07-13T01:28:00;22.8;68
77700;DHT22;66867;42.658;23.320;2023-07-13T01:29:00;22.8;68
77700;DHT22;66867;42.658;23.320;2023-07-13T01:30:00;22.8;68
77700;DHT22;66867;42.658;23.320;2023-07-13T01:31:00;22.8;68
77700;DHT22;66867;42.658;23.320;2023-07-13T01:32:00;22.9;68
77700;DHT22;66867;42.658;23.320;2023-07-13T01:33:00;22.9;68
77700;DHT22;66867;42.658;23.320;2023-07-13T01:34:00;22.9;68
77700;DHT22;66867;42.658;23.320;2023-07-13T01:35:00;22.8;69
77700;DHT22;66867;42.658;23.320;2023-07-13T01:36:00;22.8;70
77700;DHT22;66867;42.658;23.320;2023-07-13T01:37:00;22.8;70
77700;DHT22;66867;42.658;23.320;2023-07-13T01:38:00;22.8;70
77700;DHT22;66867;42.658;23.320;2023-07-13T01:39:00;22.8;70
77700;DHT22;66867;42.658;23.320;2023-07-13T01:40:00;22.8;70
77700;DHT22;66867;42.658;23.320;2023-07-13T01:41:00;22.8;70
77700;DHT22;66867;42.658;23.320;2023-07-13T01:42:00;22.8;70
77700;DHT22;66867;42.658;23.320;2023-07-13T01:43:00;22.8;70
77700;DHT22;66867;42.658;23.320;2023-07-13T01:44:00;22.8;70
77700;DHT22;66867;42.658;23.320;2023-07-13T01:45:00;22.8;69
77700;DHT22;66867;42.658;23.320;2023-07-13T01:46:00;22.8;70
77700;DHT22;66867;42.658;23.320;2023-07-13T01:47:00;22.7;69
77700;DHT22;66867;42.658;23.320;2023-07-13T01:48:00;22.7;69
77700;DHT22;66867;42.658;23.320;2023-07-13T01:49:00;22.7;69
77700;DHT22;66867;42.658;23.320;2023-07-13T01:50:00;22.7;69
77700;DHT22;66867;42.658;23.320;2023-07-13T01:51:00;22.7;69
77700;DHT22;66867;42.658;23.320;2023-07-13T01:52:00;22.6;69
77700;DHT22;66867;42.658;23.320;2023-07-13T01:53:00;22.6;69
77700;DHT22;66867;42.658;23.320;2023-07-13T01:54:00;22.6;69
77700;DHT22;66867;42.658;23.320;2023-07-13T01:55:00;22.6;70
77700;DHT22;66867;42.658;23.320;2023-07-13T01:56:00;22.6;69
77700;DHT22;66867;42.658;23.320;2023-07-13T01:57:00;22.6;69
77700;DHT22;66867;42.658;23.320;2023-07-13T01:58:00;22.6;69
77700;DHT22;66867;42.658;23.320;2023-07-13T01:59:00;22.6;69
77700;DHT22;66867;42.658;23.320;2023-07-13T02:00:02;22.6;70
77700;DHT22;66867;42.658;23.320;2023-07-13T02:01:00;22.5;69
77700;DHT22;66867;42.658;23.320;2023-07-13T02:02:00;22.5;69
77700;DHT22;66867;42.658;23.320;2023-07-13T02:03:00;22.5;70
77700;DHT22;66867;42.658;23.320;2023-07-13T02:04:00;22.4;70
77700;DHT22;66867;42.658;23.320;2023-07-13T02:05:00;22.4;70
77700;DHT22;66867;42.658;23.320;2023-07-13T02:06:00;22.4;70
77700;DHT22;66867;42.658;23.320;2023-07-13T02:07:00;22.5;70
77700;DHT22;66867;42.658;23.320;2023-07-13T02:08:00;22.4;70
77700;DHT22;66867;42.658;23.320;2023-07-13T02:09:00;22.5;70
77700;DHT22;66867;42.658;23.320;2023-07-13T02:10:00;22.5;70
77700;DHT22;66867;42.658;23.320;2023-07-13T02:11:00;22.5;70
77700;DHT22;66867;42.658;23.320;2023-07-13T02:12:00;22.5;70
77700;DHT22;66867;42.658;23.320;2023-07-13T02:13:00;22.5;70
77700;DHT22;66867;42.658;23.320;2023-07-13T02:14:00;22.5;70
77700;DHT22;66867;42.658;23.320;2023-07-13T02:15:00;22.4;71
77700;DHT22;66867;42.658;23.320;2023-07-13T02:16:00;22.4;70
77700;DHT22;66867;42.658;23.320;2023-07-13T02:17:00;22.4;70
77700;DHT22;66867;42.658;23.320;2023-07-13T02:18:00;22.4;70
77700;DHT22;66867;42.658;23.320;2023-07-13T02:19:00;22.4;70
77700;DHT22;66867;42.658;23.320;2023-07-13T02:20:00;22.4;70
77700;DHT22;66867;42.658;23.320;2023-07-13T02:21:00;22.4;70
77700;DHT22;66867;42.658;23.320;2023-07-13T02:22:00;22.4;70
77700;DHT22;66867;42.658;23.320;2023-07-13T02:23:00;22.4;70
77700;DHT22;66867;42.658;23.320;2023-07-13T02:24:00;22.4;70
77700;DHT22;66867;42.658;23.320;2023-07-13T02:25:00;22.4;71
77700;DHT22;66867;42.658;23.320;2023-07-13T02:26:00;22.4;71
77700;DHT22;66867;42.658;23.320;2023-07-13T02:27:00;22.4;71
77700;DHT22;66867;42.658;23.320;2023-07-13T02:28:00;22.4;72
77700;DHT22;66867;42.658;23.320;2023-07-13T02:29:00;22.4;72
77700;DHT22;66867;42.658;23.320;2023-07-13T02:30:00;22.4;72
77700;DHT22;66867;42.658;23.320;2023-07-13T02:31:04;22.4;72
77700;DHT22;66867;42.658;23.320;2023-07-13T02:32:00;22.3;72
77700;DHT22;66867;42.658;23.320;2023-07-13T02:33:00;22.3;72
77700;DHT22;66867;42.658;23.320;2023-07-13T02:34:00;22.3;72
77700;DHT22;66867;42.658;23.320;2023-07-13T02:35:00;22.3;72
77700;DHT22;66867;42.658;23.320;2023-07-13T02:36:00;22.3;73
77700;DHT22;66867;42.658;23.320;2023-07-13T02:37:00;22.3;73
77700;DHT22;66867;42.658;23.320;2023-07-13T02:38:00;22.2;72
77700;DHT22;66867;42.658;23.320;2023-07-13T02:39:00;22.3;72
77700;DHT22;66867;42.658;23.320;2023-07-13T02:40:00;22.3;72
77700;DHT22;66867;42.658;23.320;2023-07-13T02:41:00;22.3;72
77700;DHT22;66867;42.658;23.320;2023-07-13T02:42:00;22.3;72
77700;DHT22;66867;42.658;23.320;2023-07-13T02:43:00;22.3;72
77700;DHT22;66867;42.658;23.320;2023-07-13T02:44:00;22.2;72
77700;DHT22;66867;42.658;23.320;2023-07-13T02:45:00;22.2;72
77700;DHT22;66867;42.658;23.320;2023-07-13T02:46:00;22.2;72
77700;DHT22;66867;42.658;23.320;2023-07-13T02:47:00;22.2;72
77700;DHT22;66867;42.658;23.320;2023-07-13T02:48:00;22.2;72
77700;DHT22;66867;42.658;23.320;2023-07-13T02:49:00;22.2;72
77700;DHT22;66867;42.658;23.320;2023-07-13T02:50:00;22.1;72
77700;DHT22;66867;42.658;23.320;2023-07-13T02:51:00;22.1;72
77700;DHT22;66867;42.658;23.320;2023-07-13T02:52:00;22.1;72
77700;DHT22;66867;42.658;23.320;2023-07-13T02:53:00;22.1;72
77700;DHT22;66867;42.658;23.320;2023-07-13T02:54:00;22.1;72
77700;DHT22;66867;42.658;23.320;2023-07-13T02:55:00;22.1;73
77700;DHT22;66867;42.658;23.320;2023-07-13T02:56:00;22.1;73
77700;DHT22;66867;42.658;23.320;2023-07-13T02:57:00;22.2;73
77700;DHT22;66867;42.658;23.320;2023-07-13T02:58:00;22.2;72
77700;DHT22;66867;42.658;23.320;2023-07-13T02:59:00;22.1;72
77700;DHT22;66867;42.658;23.320;2023-07-13T03:00:00;22.1;72
77700;DHT22;66867;42.658;23.320;2023-07-13T03:01:05;22.1;72
77700;DHT22;66867;42.658;23.320;2023-07-13T03:02:01;22.2;72
77700;DHT22;66867;42.658;23.320;2023-07-13T03:03:00;22.1;72
77700;DHT22;66867;42.658;23.320;2023-07-13T03:04:00;22.1;72
77700;DHT22;66867;42.658;23.320;2023-07-13T03:05:00;22.1;72
77700;DHT22;66867;42.658;23.320;2023-07-13T03:06:01;22.1;72
77700;DHT22;66867;42.658;23.320;2023-07-13T03:07:00;22.1;72
77700;DHT22;66867;42.658;23.320;2023-07-13T03:08:00;22.0;71
77700;DHT22;66867;42.658;23.320;2023-07-13T03:09:00;22.0;71
77700;DHT22;66867;42.658;23.320;2023-07-13T03:10:00;22.0;71
77700;DHT22;66867;42.658;23.320;2023-07-13T03:11:02;22.0;71
77700;DHT22;66867;42.658;23.320;2023-07-13T03:12:00;22.0;71
77700;DHT22;66867;42.658;23.320;2023-07-13T03:13:00;22.0;72
77700;DHT22;66867;42.658;23.320;2023-07-13T03:14:00;22.0;72
77700;DHT22;66867;42.658;23.320;2023-07-13T03:15:00;22.0;72
77700;DHT22;66867;42.658;23.320;2023-07-13T03:16:00;22.0;72
77700;DHT22;66867;42.658;23.320;2023-07-13T03:17:00;21.9;73
77700;DHT22;66867;42.658;23.320;2023-07-13T03:18:00;21.9;73
77700;DHT22;66867;42.658;23.320;2023-07-13T03:19:00;21.9;73
77700;DHT22;66867;42.658;23.320;2023-07-13T03:20:00;21.9;72
77700;DHT22;66867;42.658;23.320;2023-07-13T03:21:00;21.9;72
77700;DHT22;66867;42.658;23.320;2023-07-13T03:22:00;21.9;72
77700;DHT22;66867;42.658;23.320;2023-07-13T03:23:00;21.9;72
77700;DHT22;66867;42.658;23.320;2023-07-13T03:24:00;21.9;72
77700;DHT22;66867;42.658;23.320;2023-07-13T03:25:00;21.9;72
77700;DHT22;66867;42.658;23.320;2023-07-13T03:26:01;21.9;73
77700;DHT22;66867;42.658;23.320;2023-07-13T03:27:01;21.9;73
77700;DHT22;66867;42.658;23.320;2023-07-13T03:28:00;21.9;74
77700;DHT22;66867;42.658;23.320;2023-07-13T03:29:00;22.0;74
77700;DHT22;66867;42.658;23.320;2023-07-13T03:30:00;22.0;74
77700;DHT22;66867;42.658;23.320;2023-07-13T03:31:01;22.0;74
77700;DHT22;66867;42.658;23.320;2023-07-13T03:32:00;21.9;74
77700;DHT22;66867;42.658;23.320;2023-07-13T03:33:00;22.0;74
77700;DHT22;66867;42.658;23.320;2023-07-13T03:34:00;22.0;74
77700;DHT22;66867;42.658;23.320;2023-07-13T03:35:00;21.9;74
77700;DHT22;66867;42.658;23.320;2023-07-13T03:36:00;21.9;74
77700;DHT22;66867;42.658;23.320;2023-07-13T03:37:00;21.9;74
77700;DHT22;66867;42.658;23.320;2023-07-13T03:38:00;21.9;74
77700;DHT22;66867;42.658;23.320;2023-07-13T03:39:01;21.9;74
77700;DHT22;66867;42.658;23.320;2023-07-13T03:40:00;21.9;74
77700;DHT22;66867;42.658;23.320;2023-07-13T03:41:00;21.9;74
77700;DHT22;66867;42.658;23.320;2023-07-13T03:42:00;21.9;75
77700;DHT22;66867;42.658;23.320;2023-07-13T03:43:00;22.0;75
77700;DHT22;66867;42.658;23.320;2023-07-13T03:44:00;22.0;74
77700;DHT22;66867;42.658;23.320;2023-07-13T03:45:00;22.0;74
77700;DHT22;66867;42.658;23.320;2023-07-13T03:46:00;22.0;74
77700;DHT22;66867;42.658;23.320;2023-07-13T03:47:00;22.0;74
77700;DHT22;66867;42.658;23.320;2023-07-13T03:48:00;22.0;74
77700;DHT22;66867;42.658;23.320;2023-07-13T03:49:01;22.0;75
77700;DHT22;66867;42.658;23.320;2023-07-13T03:50:00;22.0;75
77700;DHT22;66867;42.658;23.320;2023-07-13T03:51:00;22.0;75
77700;DHT22;66867;42.658;23.320;2023-07-13T03:52:00;22.0;75
77700;DHT22;66867;42.658;23.320;2023-07-13T03:53:00;22.1;75
77700;DHT22;66867;42.658;23.320;2023-07-13T03:54:00;22.1;74
77700;DHT22;66867;42.658;23.320;2023-07-13T03:55:00;22.1;74
77700;DHT22;66867;42.658;23.320;2023-07-13T03:56:00;22.1;74
77700;DHT22;66867;42.658;23.320;2023-07-13T03:57:00;22.1;74
77700;DHT22;66867;42.658;23.320;2023-07-13T03:59:00;22.2;74
77700;DHT22;66867;42.658;23.320;2023-07-13T04:00:00;22.2;73
77700;DHT22;66867;42.658;23.320;2023-07-13T04:01:00;22.2;74
77700;DHT22;66867;42.658;23.320;2023-07-13T04:02:00;22.2;74
77700;DHT22;66867;42.658;23.320;2023-07-13T04:03:00;22.2;74
77700;DHT22;66867;42.658;23.320;2023-07-13T04:04:00;22.3;74
77700;DHT22;66867;42.658;23.320;2023-07-13T04:05:00;22.3;74
77700;DHT22;66867;42.658;23.320;2023-07-13T04:06:00;22.3;75
77700;DHT22;66867;42.658;23.320;2023-07-13T04:07:00;22.3;75
77700;DHT22;66867;42.658;23.320;2023-07-13T04:08:00;22.3;75
77700;DHT22;66867;42.658;23.320;2023-07-13T04:09:01;22.3;74
77700;DHT22;66867;42.658;23.320;2023-07-13T04:10:00;22.3;75
77700;DHT22;66867;42.658;23.320;2023-07-13T04:11:00;22.3;75
77700;DHT22;66867;42.658;23.320;2023-07-13T04:12:00;22.3;75
77700;DHT22;66867;42.658;23.320;2023-07-13T04:13:00;22.4;75
77700;DHT22;66867;42.658;23.320;2023-07-13T04:14:00;22.4;75
77700;DHT22;66867;42.658;23.320;2023-07-13T04:15:00;22.4;75
77700;DHT22;66867;42.658;23.320;2023-07-13T04:16:00;22.4;75
77700;DHT22;66867;42.658;23.320;2023-07-13T04:17:00;22.4;75
77700;DHT22;66867;42.658;23.320;2023-07-13T04:18:00;22.4;75
77700;DHT22;66867;42.658;23.320;2023-07-13T04:19:00;22.4;75
77700;DHT22;66867;42.658;23.320;2023-07-13T04:20:00;22.5;75
77700;DHT22;66867;42.658;23.320;2023-07-13T04:21:00;22.5;75
77700;DHT22;66867;42.658;23.320;2023-07-13T04:22:00;22.5;75
77700;DHT22;66867;42.658;23.320;2023-07-13T04:23:00;22.5;75
77700;DHT22;66867;42.658;23.320;2023-07-13T04:24:00;22.5;75
77700;DHT22;66867;42.658;23.320;2023-07-13T04:25:00;22.6;75
77700;DHT22;66867;42.658;23.320;2023-07-13T04:26:00;22.6;75
77700;DHT22;66867;42.658;23.320;2023-07-13T04:27:00;22.6;75
77700;DHT22;66867;42.658;23.320;2023-07-13T04:28:00;22.6;75
77700;DHT22;66867;42.658;23.320;2023-07-13T04:29:00;22.6;75
77700;DHT22;66867;42.658;23.320;2023-07-13T04:30:00;22.7;75
77700;DHT22;66867;42.658;23.320;2023-07-13T04:31:00;22.7;75
77700;DHT22;66867;42.658;23.320;2023-07-13T04:32:00;22.7;75
77700;DHT22;66867;42.658;23.320;2023-07-13T04:33:00;22.7;75
77700;DHT22;66867;42.658;23.320;2023-07-13T04:34:00;22.7;75
77700;DHT22;66867;42.658;23.320;2023-07-13T04:35:00;22.7;75
77700;DHT22;66867;42.658;23.320;2023-07-13T04:36:00;22.7;75
77700;DHT22;66867;42.658;23.320;2023-07-13T04:37:00;22.8;75
77700;DHT22;66867;42.658;23.320;2023-07-13T04:38:00;22.8;75
77700;DHT22;66867;42.658;23.320;2023-07-13T04:39:00;22.8;75
77700;DHT22;66867;42.658;23.320;2023-07-13T04:40:00;22.8;75
77700;DHT22;66867;42.658;23.320;2023-07-13T04:41:01;22.8;75
77700;DHT22;66867;42.658;23.320;2023-07-13T04:42:00;22.9;75
77700;DHT22;66867;42.658;23.320;2023-07-13T04:43:00;22.9;75
77700;DHT22;66867;42.658;23.320;2023-07-13T04:44:00;22.9;75
77700;DHT22;66867;42.658;23.320;2023-07-13T04:45:00;22.9;75
77700;DHT22;66867;42.658;23.320;2023-07-13T04:46:08;22.9;75
77700;DHT22;66867;42.658;23.320;2023-07-13T04:47:00;23.0;75
77700;DHT22;66867;42.658;23.320;2023-07-13T04:48:00;23.0;74
77700;DHT22;66867;42.658;23.320;2023-07-13T04:49:00;23.0;75
77700;DHT22;66867;42.658;23.320;2023-07-13T04:50:00;23.0;75
77700;DHT22;66867;42.658;23.320;2023-07-13T04:51:00;23.1;74
77700;DHT22;66867;42.658;23.320;2023-07-13T04:52:00;23.1;74
77700;DHT22;66867;42.658;23.320;2023-07-13T04:53:00;23.1;74
77700;DHT22;66867;42.658;23.320;2023-07-13T04:54:00;23.1;74
77700;DHT22;66867;42.658;23.320;2023-07-13T04:55:00;23.1;74
77700;DHT22;66867;42.658;23.320;2023-07-13T04:56:00;23.2;74
77700;DHT22;66867;42.658;23.320;2023-07-13T04:57:00;23.2;74
77700;DHT22;66867;42.658;23.320;2023-07-13T04:58:00;23.2;74
77700;DHT22;66867;42.658;23.320;2023-07-13T04:59:00;23.2;75
77700;DHT22;66867;42.658;23.320;2023-07-13T05:00:00;23.2;75
77700;DHT22;66867;42.658;23.320;2023-07-13T05:01:01;23.2;74
77700;DHT22;66867;42.658;23.320;2023-07-13T05:02:00;23.3;74
77700;DHT22;66867;42.658;23.320;2023-07-13T05:03:00;23.3;74
77700;DHT22;66867;42.658;23.320;2023-07-13T05:04:00;23.3;74
77700;DHT22;66867;42.658;23.320;2023-07-13T05:05:00;23.3;74
77700;DHT22;66867;42.658;23.320;2023-07-13T05:06:04;23.3;74
77700;DHT22;66867;42.658;23.320;2023-07-13T05:07:00;23.3;73
77700;DHT22;66867;42.658;23.320;2023-07-13T05:08:00;23.4;73
77700;DHT22;66867;42.658;23.320;2023-07-13T05:09:00;23.4;73
77700;DHT22;66867;42.658;23.320;2023-07-13T05:10:00;23.4;74
77700;DHT22;66867;42.658;23.320;2023-07-13T05:11:00;23.4;74
77700;DHT22;66867;42.658;23.320;2023-07-13T05:12:00;23.5;74
77700;DHT22;66867;42.658;23.320;2023-07-13T05:13:00;23.5;74
77700;DHT22;66867;42.658;23.320;2023-07-13T05:14:00;23.5;74
77700;DHT22;66867;42.658;23.320;2023-07-13T05:15:00;23.6;74
77700;DHT22;66867;42.658;23.320;2023-07-13T05:16:03;23.6;74
77700;DHT22;66867;42.658;23.320;2023-07-13T05:17:00;23.6;74
77700;DHT22;66867;42.658;23.320;2023-07-13T05:18:00;23.6;74
77700;DHT22;66867;42.658;23.320;2023-07-13T05:19:00;23.6;74
77700;DHT22;66867;42.658;23.320;2023-07-13T05:20:00;23.6;74
77700;DHT22;66867;42.658;23.320;2023-07-13T05:21:02;23.6;75
77700;DHT22;66867;42.658;23.320;2023-07-13T05:22:00;23.7;75
77700;DHT22;66867;42.658;23.320;2023-07-13T05:23:00;23.7;74
77700;DHT22;66867;42.658;23.320;2023-07-13T05:24:00;23.7;74
77700;DHT22;66867;42.658;23.320;2023-07-13T05:25:02;23.7;74
77700;DHT22;66867;42.658;23.320;2023-07-13T05:26:00;23.7;74
77700;DHT22;66867;42.658;23.320;2023-07-13T05:27:00;23.7;74
77700;DHT22;66867;42.658;23.320;2023-07-13T05:28:00;23.7;74
77700;DHT22;66867;42.658;23.320;2023-07-13T05:29:00;23.8;74
77700;DHT22;66867;42.658;23.320;2023-07-13T05:30:00;23.8;74
77700;DHT22;66867;42.658;23.320;2023-07-13T05:31:00;23.8;74
77700;DHT22;66867;42.658;23.320;2023-07-13T05:32:00;23.9;74
77700;DHT22;66867;42.658;23.320;2023-07-13T05:33:00;23.9;73
77700;DHT22;66867;42.658;23.320;2023-07-13T05:34:00;23.9;74
77700;DHT22;66867;42.658;23.320;2023-07-13T05:35:00;23.9;73
77700;DHT22;66867;42.658;23.320;2023-07-13T05:36:00;24.0;73
77700;DHT22;66867;42.658;23.320;2023-07-13T05:37:00;24.0;74
77700;DHT22;66867;42.658;23.320;2023-07-13T05:38:00;24.1;73
77700;DHT22;66867;42.658;23.320;2023-07-13T05:39:00;24.1;73
77700;DHT22;66867;42.658;23.320;2023-07-13T05:40:00;24.1;73
77700;DHT22;66867;42.658;23.320;2023-07-13T05:41:00;24.2;73
77700;DHT22;66867;42.658;23.320;2023-07-13T05:42:00;24.2;73
77700;DHT22;66867;42.658;23.320;2023-07-13T05:43:00;24.2;73
77700;DHT22;66867;42.658;23.320;2023-07-13T05:44:00;24.3;73
77700;DHT22;66867;42.658;23.320;2023-07-13T05:45:00;24.3;73
77700;DHT22;66867;42.658;23.320;2023-07-13T05:46:00;24.3;74
77700;DHT22;66867;42.658;23.320;2023-07-13T05:47:00;24.3;73
77700;DHT22;66867;42.658;23.320;2023-07-13T05:48:00;24.4;74
77700;DHT22;66867;42.658;23.320;2023-07-13T05:49:00;24.4;74
77700;DHT22;66867;42.658;23.320;2023-07-13T05:50:00;24.5;73
77700;DHT22;66867;42.658;23.320;2023-07-13T05:51:00;24.5;73
77700;DHT22;66867;42.658;23.320;2023-07-13T05:52:00;24.5;73
77700;DHT22;66867;42.658;23.320;2023-07-13T05:53:00;24.6;73
77700;DHT22;66867;42.658;23.320;2023-07-13T05:54:00;24.6;73
77700;DHT22;66867;42.658;23.320;2023-07-13T05:55:00;24.6;73
77700;DHT22;66867;42.658;23.320;2023-07-13T05:56:00;24.6;73
77700;DHT22;66867;42.658;23.320;2023-07-13T05:57:00;24.7;73
77700;DHT22;66867;42.658;23.320;2023-07-13T05:58:00;24.7;73
77700;DHT22;66867;42.658;23.320;2023-07-13T05:59:00;24.8;72
77700;DHT22;66867;42.658;23.320;2023-07-13T06:00:00;24.8;72
77700;DHT22;66867;42.658;23.320;2023-07-13T06:01:02;24.8;72
77700;DHT22;66867;42.658;23.320;2023-07-13T06:02:00;24.8;72
77700;DHT22;66867;42.658;23.320;2023-07-13T06:03:00;24.9;71
77700;DHT22;66867;42.658;23.320;2023-07-13T06:04:00;24.9;71
77700;DHT22;66867;42.658;23.320;2023-07-13T06:05:00;25.0;71
77700;DHT22;66867;42.658;23.320;2023-07-13T06:06:00;25.0;69
77700;DHT22;66867;42.658;23.320;2023-07-13T06:07:00;24.9;68
77700;DHT22;66867;42.658;23.320;2023-07-13T06:08:00;25.0;67
77700;DHT22;66867;42.658;23.320;2023-07-13T06:09:00;25.0;66
77700;DHT22;66867;42.658;23.320;2023-07-13T06:10:00;25.1;66
77700;DHT22;66867;42.658;23.320;2023-07-13T06:11:09;25.1;67
77700;DHT22;66867;42.658;23.320;2023-07-13T06:12:00;25.1;68
77700;DHT22;66867;42.658;23.320;2023-07-13T06:13:00;25.2;68
77700;DHT22;66867;42.658;23.320;2023-07-13T06:14:00;25.2;68
77700;DHT22;66867;42.658;23.320;2023-07-13T06:15:00;25.3;68
77700;DHT22;66867;42.658;23.320;2023-07-13T06:16:00;25.3;66
77700;DHT22;66867;42.658;23.320;2023-07-13T06:17:00;25.3;66
77700;DHT22;66867;42.658;23.320;2023-07-13T06:18:00;25.4;65
77700;DHT22;66867;42.658;23.320;2023-07-13T06:19:00;25.4;66
77700;DHT22;66867;42.658;23.320;2023-07-13T06:20:00;25.4;66
77700;DHT22;66867;42.658;23.320;2023-07-13T06:21:01;25.4;67
77700;DHT22;66867;42.658;23.320;2023-07-13T06:22:00;25.5;67
77700;DHT22;66867;42.658;23.320;2023-07-13T06:23:01;25.6;67
77700;DHT22;66867;42.658;23.320;2023-07-13T06:24:00;25.6;66
77700;DHT22;66867;42.658;23.320;2023-07-13T06:25:00;25.6;66
77700;DHT22;66867;42.658;23.320;2023-07-13T06:26:00;25.7;66
77700;DHT22;66867;42.658;23.320;2023-07-13T06:27:00;25.7;66
77700;DHT22;66867;42.658;23.320;2023-07-13T06:28:00;25.8;66
77700;DHT22;66867;42.658;23.320;2023-07-13T06:29:00;25.8;66
77700;DHT22;66867;42.658;23.320;2023-07-13T06:30:00;25.8;65
77700;DHT22;66867;42.658;23.320;2023-07-13T06:31:00;25.8;66
77700;DHT22;66867;42.658;23.320;2023-07-13T06:32:00;25.9;67
77700;DHT22;66867;42.658;23.320;2023-07-13T06:33:00;25.9;67
77700;DHT22;66867;42.658;23.320;2023-07-13T06:34:00;25.9;67
77700;DHT22;66867;42.658;23.320;2023-07-13T06:35:00;26.0;67
77700;DHT22;66867;42.658;23.320;2023-07-13T06:36:01;26.0;67
77700;DHT22;66867;42.658;23.320;2023-07-13T06:37:00;26.1;67
77700;DHT22;66867;42.658;23.320;2023-07-13T06:38:00;26.1;67
77700;DHT22;66867;42.658;23.320;2023-07-13T06:39:00;26.1;66